Terminal Aerodrome Forecast
Issued by NWS

Home | Current Version | Previous Version | Text Only | Print | Product List | Glossary On
Versions: 1 2 3 4 5 6 7 8 9 10 11 12 13 14 15 16 17 18 19 20 21 22 23 24 25 26
000
FTUS45 KPSR 292004 AAA
TAFPHX
TAF AMD
KPHX 292004Z 2920/3018 11006KT P6SM FEW250
     FM292100 27008KT P6SM FEW100 SCT250
     FM300300 14015G25KT P6SM VCTS SCT110CB BKN200
     FM300600 10005KT P6SM FEW100 SCT250=

USA.gov is the U.S. government's official web portal to all federal, state and local government web resources and services.